sensor_id;sensor_type;location;lat;lon;timestamp;pressure;altitude;pressure_sealevel;temperature;humidity
36190;BME280;22232;50.914;13.858;2023-02-14T00:01:21;99826.06;;;3.69;100.00
36190;BME280;22232;50.914;13.858;2023-02-14T00:03:49;99826.06;;;3.69;100.00
36190;BME280;22232;50.914;13.858;2023-02-14T00:06:17;99818.16;;;3.69;100.00
36190;BME280;22232;50.914;13.858;2023-02-14T00:08:44;99814.53;;;3.70;100.00
36190;BME280;22232;50.914;13.858;2023-02-14T00:11:12;99815.34;;;3.71;100.00
36190;BME280;22232;50.914;13.858;2023-02-14T00:13:40;99819.53;;;3.73;100.00
36190;BME280;22232;50.914;13.858;2023-02-14T00:16:28;99810.63;;;3.74;100.00
36190;BME280;22232;50.914;13.858;2023-02-14T00:18:55;99819.41;;;3.75;100.00
36190;BME280;22232;50.914;13.858;2023-02-14T00:21:35;99816.91;;;3.73;100.00
36190;BME280;22232;50.914;13.858;2023-02-14T00:24:25;99817.72;;;3.74;100.00
36190;BME280;22232;50.914;13.858;2023-02-14T00:26:52;99814.13;;;3.75;100.00
36190;BME280;22232;50.914;13.858;2023-02-14T00:29:23;99810.78;;;3.73;100.00
36190;BME280;22232;50.914;13.858;2023-02-14T00:31:50;99811.63;;;3.73;100.00
36190;BME280;22232;50.914;13.858;2023-02-14T00:34:18;99807.44;;;3.71;100.00
36190;BME280;22232;50.914;13.858;2023-02-14T00:36:46;99809.81;;;3.74;100.00
36190;BME280;22232;50.914;13.858;2023-02-14T00:39:17;99808.56;;;3.78;100.00
36190;BME280;22232;50.914;13.858;2023-02-14T00:41:45;99812.31;;;3.75;100.00
36190;BME280;22232;50.914;13.858;2023-02-14T00:44:13;99811.63;;;3.73;100.00
36190;BME280;22232;50.914;13.858;2023-02-14T00:46:41;99816.91;;;3.73;100.00
36190;BME280;22232;50.914;13.858;2023-02-14T00:49:08;99811.63;;;3.73;100.00
36190;BME280;22232;50.914;13.858;2023-02-14T00:51:38;99803.84;;;3.72;100.00
36190;BME280;22232;50.914;13.858;2023-02-14T00:54:05;99803.69;;;3.73;100.00
36190;BME280;22232;50.914;13.858;2023-02-14T00:56:33;99802.72;;;3.74;100.00
36190;BME280;22232;50.914;13.858;2023-02-14T00:59:01;99801.88;;;3.74;100.00
36190;BME280;22232;50.914;13.858;2023-02-14T01:01:28;99799.25;;;3.74;100.00
36190;BME280;22232;50.914;13.858;2023-02-14T01:03:56;99800.22;;;3.73;100.00
36190;BME280;22232;50.914;13.858;2023-02-14T01:06:25;99802.72;;;3.74;100.00
36190;BME280;22232;50.914;13.858;2023-02-14T01:08:52;99804.53;;;3.74;100.00
36190;BME280;22232;50.914;13.858;2023-02-14T01:11:22;99802.72;;;3.74;100.00
36190;BME280;22232;50.914;13.858;2023-02-14T01:13:54;99800.94;;;3.75;100.00
36190;BME280;22232;50.914;13.858;2023-02-14T01:16:23;99796.50;;;3.75;100.00
36190;BME280;22232;50.914;13.858;2023-02-14T01:18:54;99794.25;;;3.80;100.00
36190;BME280;22232;50.914;13.858;2023-02-14T01:21:27;99792.59;;;3.79;100.00
36190;BME280;22232;50.914;13.858;2023-02-14T01:23:57;99793.97;;;3.83;100.00
36190;BME280;22232;50.914;13.858;2023-02-14T01:26:27;99788.41;;;3.86;100.00
36190;BME280;22232;50.914;13.858;2023-02-14T01:28:55;99792.88;;;3.86;100.00
36190;BME280;22232;50.914;13.858;2023-02-14T01:31:27;99792.19;;;3.84;100.00
36190;BME280;22232;50.914;13.858;2023-02-14T01:33:56;99793.00;;;3.84;100.00
36190;BME280;22232;50.914;13.858;2023-02-14T01:36:32;99781.75;;;3.82;100.00
36190;BME280;22232;50.914;13.858;2023-02-14T01:39:05;99774.38;;;3.76;100.00
36190;BME280;22232;50.914;13.858;2023-02-14T01:41:35;99768.41;;;3.74;100.00
36190;BME280;22232;50.914;13.858;2023-02-14T01:46:45;99773.41;;;3.67;100.00
36190;BME280;22232;50.914;13.858;2023-02-14T01:49:18;99771.59;;;3.68;100.00
36190;BME280;22232;50.914;13.858;2023-02-14T01:51:59;99762.03;;;3.67;100.00
36190;BME280;22232;50.914;13.858;2023-02-14T01:54:31;99767.19;;;3.68;100.00
36190;BME280;22232;50.914;13.858;2023-02-14T01:57:04;99768.84;;;3.70;100.00
36190;BME280;22232;50.914;13.858;2023-02-14T01:59:39;99774.13;;;3.70;100.00
36190;BME280;22232;50.914;13.858;2023-02-14T02:02:08;99770.50;;;3.71;100.00
36190;BME280;22232;50.914;13.858;2023-02-14T02:04:41;99777.47;;;3.72;100.00
36190;BME280;22232;50.914;13.858;2023-02-14T02:07:13;99773.13;;;3.71;100.00
36190;BME280;22232;50.914;13.858;2023-02-14T02:09:57;99761.19;;;3.66;100.00
36190;BME280;22232;50.914;13.858;2023-02-14T02:12:25;99767.19;;;3.68;100.00
36190;BME280;22232;50.914;13.858;2023-02-14T02:14:57;99762.72;;;3.69;100.00
36190;BME280;22232;50.914;13.858;2023-02-14T02:17:36;99768.97;;;3.68;100.00
36190;BME280;22232;50.914;13.858;2023-02-14T02:26:32;99761.19;;;3.66;100.00
36190;BME280;22232;50.914;13.858;2023-02-14T02:42:32;99756.19;;;3.63;100.00
36190;BME280;22232;50.914;13.858;2023-02-14T02:48:06;99744.94;;;3.61;100.00
36190;BME280;22232;50.914;13.858;2023-02-14T02:50:45;99752.19;;;3.59;100.00
36190;BME280;22232;50.914;13.858;2023-02-14T02:53:46;99751.47;;;3.48;100.00
36190;BME280;22232;50.914;13.858;2023-02-14T02:56:36;99743.56;;;3.48;100.00
36190;BME280;22232;50.914;13.858;2023-02-14T02:59:23;99735.75;;;3.46;100.00
36190;BME280;22232;50.914;13.858;2023-02-14T03:02:03;99739.50;;;3.43;100.00
36190;BME280;22232;50.914;13.858;2023-02-14T03:04:34;99739.38;;;3.45;100.00
36190;BME280;22232;50.914;13.858;2023-02-14T03:07:33;99746.19;;;3.48;100.00
36190;BME280;22232;50.914;13.858;2023-02-14T03:10:21;99746.03;;;3.49;100.00
36190;BME280;22232;50.914;13.858;2023-02-14T03:15:51;99748.84;;;3.48;100.00
36190;BME280;22232;50.914;13.858;2023-02-14T03:32:14;99740.38;;;3.54;100.00
36190;BME280;22232;50.914;13.858;2023-02-14T03:34:53;99737.03;;;3.52;100.00
36190;BME280;22232;50.914;13.858;2023-02-14T03:40:21;99737.03;;;3.52;100.00
36190;BME280;22232;50.914;13.858;2023-02-14T03:42:56;99733.69;;;3.50;100.00
36190;BME280;22232;50.914;13.858;2023-02-14T03:48:10;99738.69;;;3.53;100.00
36190;BME280;22232;50.914;13.858;2023-02-14T03:50:41;99735.09;;;3.54;100.00
36190;BME280;22232;50.914;13.858;2023-02-14T03:53:11;99729.09;;;3.52;100.00
36190;BME280;22232;50.914;13.858;2023-02-14T03:56:58;99733.41;;;3.53;100.00
36190;BME280;22232;50.914;13.858;2023-02-14T03:59:22;99732.44;;;3.54;100.00
36190;BME280;22232;50.914;13.858;2023-02-14T04:04:26;99737.31;;;3.49;100.00
36190;BME280;22232;50.914;13.858;2023-02-14T04:06:57;99732.84;;;3.49;100.00
36190;BME280;22232;50.914;13.858;2023-02-14T04:09:24;99747.84;;;3.49;100.00
36190;BME280;22232;50.914;13.858;2023-02-14T04:11:52;99742.56;;;3.49;100.00
36190;BME280;22232;50.914;13.858;2023-02-14T04:14:19;99741.59;;;3.50;100.00
36190;BME280;22232;50.914;13.858;2023-02-14T04:16:46;99740.63;;;3.51;100.00
36190;BME280;22232;50.914;13.858;2023-02-14T04:19:33;99739.66;;;3.52;100.00
36190;BME280;22232;50.914;13.858;2023-02-14T04:22:00;99738.97;;;3.50;100.00
36190;BME280;22232;50.914;13.858;2023-02-14T04:24:28;99730.38;;;3.48;100.00
36190;BME280;22232;50.914;13.858;2023-02-14T04:26:55;99733.00;;;3.48;100.00
36190;BME280;22232;50.914;13.858;2023-02-14T04:29:46;99725.09;;;3.48;100.00
36190;BME280;22232;50.914;13.858;2023-02-14T04:32:17;99727.72;;;3.48;100.00
36190;BME280;22232;50.914;13.858;2023-02-14T04:34:45;99719.09;;;3.45;100.00
36190;BME280;22232;50.914;13.858;2023-02-14T04:37:15;99723.69;;;3.43;100.00
36190;BME280;22232;50.914;13.858;2023-02-14T04:39:42;99715.09;;;3.41;100.00
36190;BME280;22232;50.914;13.858;2023-02-14T04:42:10;99719.38;;;3.42;100.00
36190;BME280;22232;50.914;13.858;2023-02-14T04:44:37;99711.34;;;3.44;100.00
36190;BME280;22232;50.914;13.858;2023-02-14T04:47:05;99716.34;;;3.47;100.00
36190;BME280;22232;50.914;13.858;2023-02-14T04:49:34;99716.63;;;3.44;100.00
36190;BME280;22232;50.914;13.858;2023-02-14T04:52:03;99712.44;;;3.41;100.00
36190;BME280;22232;50.914;13.858;2023-02-14T04:54:31;99710.09;;;3.38;100.00
36190;BME280;22232;50.914;13.858;2023-02-14T04:56:58;99707.44;;;3.38;100.00
36190;BME280;22232;50.914;13.858;2023-02-14T04:59:26;99700.50;;;3.37;100.00
36190;BME280;22232;50.914;13.858;2023-02-14T05:01:54;99705.09;;;3.35;100.00
36190;BME280;22232;50.914;13.858;2023-02-14T05:04:21;99711.31;;;3.34;100.00
36190;BME280;22232;50.914;13.858;2023-02-14T05:06:49;99708.69;;;3.34;100.00
36190;BME280;22232;50.914;13.858;2023-02-14T05:09:16;99714.22;;;3.31;100.00
36190;BME280;22232;50.914;13.858;2023-02-14T05:11:44;99708.41;;;3.28;100.00
36190;BME280;22232;50.914;13.858;2023-02-14T05:14:12;99717.41;;;3.25;100.00
36190;BME280;22232;50.914;13.858;2023-02-14T05:16:40;99716.31;;;3.28;100.00
36190;BME280;22232;50.914;13.858;2023-02-14T05:19:07;99713.56;;;3.29;100.00
36190;BME280;22232;50.914;13.858;2023-02-14T05:21:35;99716.31;;;3.28;100.00
36190;BME280;22232;50.914;13.858;2023-02-14T05:24:03;99712.13;;;3.25;100.00
36190;BME280;22232;50.914;13.858;2023-02-14T05:26:30;99713.50;;;3.19;100.00
36190;BME280;22232;50.914;13.858;2023-02-14T05:28:58;99711.59;;;3.21;100.00
36190;BME280;22232;50.914;13.858;2023-02-14T05:31:25;99704.50;;;3.22;100.00
36190;BME280;22232;50.914;13.858;2023-02-14T05:33:53;99707.13;;;3.22;100.00
36190;BME280;22232;50.914;13.858;2023-02-14T05:36:21;99698.56;;;3.20;100.00
36190;BME280;22232;50.914;13.858;2023-02-14T05:38:48;99705.88;;;3.16;100.00
36190;BME280;22232;50.914;13.858;2023-02-14T05:41:16;99703.41;;;3.15;100.00
36190;BME280;22232;50.914;13.858;2023-02-14T05:43:43;99698.56;;;3.20;100.00
36190;BME280;22232;50.914;13.858;2023-02-14T05:50:23;99702.69;;;3.13;100.00
36190;BME280;22232;50.914;13.858;2023-02-14T05:52:53;99701.31;;;3.09;100.00
36190;BME280;22232;50.914;13.858;2023-02-14T05:55:21;99701.56;;;3.06;100.00
36190;BME280;22232;50.914;13.858;2023-02-14T05:57:49;99706.84;;;3.06;100.00
36190;BME280;22232;50.914;13.858;2023-02-14T06:00:17;99702.56;;;3.05;100.00
36190;BME280;22232;50.914;13.858;2023-02-14T06:02:45;99704.34;;;3.04;100.00
36190;BME280;22232;50.914;13.858;2023-02-14T06:05:12;99702.56;;;3.05;100.00
36190;BME280;22232;50.914;13.858;2023-02-14T06:07:41;99697.41;;;3.03;100.00
36190;BME280;22232;50.914;13.858;2023-02-14T06:10:09;99696.69;;;3.01;100.00
36190;BME280;22232;50.914;13.858;2023-02-14T06:12:37;99701.69;;;2.94;100.00
36190;BME280;22232;50.914;13.858;2023-02-14T06:15:05;99704.88;;;2.98;100.00
36190;BME280;22232;50.914;13.858;2023-02-14T06:17:32;99707.25;;;3.01;100.00
36190;BME280;22232;50.914;13.858;2023-02-14T06:20:00;99708.38;;;2.98;100.00
36190;BME280;22232;50.914;13.858;2023-02-14T06:22:27;99710.03;;;2.99;100.00
36190;BME280;22232;50.914;13.858;2023-02-14T06:24:56;99700.19;;;3.02;100.00
36190;BME280;22232;50.914;13.858;2023-02-14T06:27:24;99705.31;;;3.03;100.00
36190;BME280;22232;50.914;13.858;2023-02-14T06:29:51;99707.94;;;3.03;100.00
36190;BME280;22232;50.914;13.858;2023-02-14T06:32:19;99707.38;;;2.99;100.00
36190;BME280;22232;50.914;13.858;2023-02-14T06:34:46;99715.41;;;2.98;100.00
36190;BME280;22232;50.914;13.858;2023-02-14T06:37:14;99714.31;;;3.01;100.00
36190;BME280;22232;50.914;13.858;2023-02-14T06:39:42;99707.13;;;3.03;100.00
36190;BME280;22232;50.914;13.858;2023-02-14T06:42:09;99718.22;;;3.06;100.00
36190;BME280;22232;50.914;13.858;2023-02-14T06:44:37;99721.56;;;3.08;100.00
36190;BME280;22232;50.914;13.858;2023-02-14T06:47:04;99718.78;;;3.10;100.00
36190;BME280;22232;50.914;13.858;2023-02-14T06:49:32;99715.19;;;3.11;100.00
36190;BME280;22232;50.914;13.858;2023-02-14T06:51:59;99714.91;;;3.14;100.00
36190;BME280;22232;50.914;13.858;2023-02-14T06:54:27;99714.66;;;3.17;100.00
36190;BME280;22232;50.914;13.858;2023-02-14T06:56:54;99708.94;;;3.21;100.00
36190;BME280;22232;50.914;13.858;2023-02-14T06:59:22;99715.59;;;3.26;100.00
36190;BME280;22232;50.914;13.858;2023-02-14T07:01:49;99722.56;;;3.27;100.00
36190;BME280;22232;50.914;13.858;2023-02-14T07:04:17;99720.75;;;3.27;100.00
36190;BME280;22232;50.914;13.858;2023-02-14T07:06:45;99720.47;;;3.30;100.00
36190;BME280;22232;50.914;13.858;2023-02-14T07:09:12;99717.84;;;3.30;100.00
36190;BME280;22232;50.914;13.858;2023-02-14T07:11:44;99714.38;;;3.30;100.00
36190;BME280;22232;50.914;13.858;2023-02-14T07:14:12;99710.75;;;3.31;100.00
36190;BME280;22232;50.914;13.858;2023-02-14T07:16:40;99721.88;;;3.34;100.00
36190;BME280;22232;50.914;13.858;2023-02-14T07:19:07;99718.13;;;3.37;100.00
36190;BME280;22232;50.914;13.858;2023-02-14T07:21:35;99709.00;;;3.41;100.00
36190;BME280;22232;50.914;13.858;2023-02-14T07:24:03;99709.53;;;3.44;100.00
36190;BME280;22232;50.914;13.858;2023-02-14T07:26:30;99714.00;;;3.44;100.00
36190;BME280;22232;50.914;13.858;2023-02-14T07:28:58;99716.06;;;3.50;100.00
36190;BME280;22232;50.914;13.858;2023-02-14T07:31:25;99715.50;;;3.56;100.00
36190;BME280;22232;50.914;13.858;2023-02-14T07:33:53;99709.81;;;3.61;100.00
36190;BME280;22232;50.914;13.858;2023-02-14T07:36:20;99711.06;;;3.66;100.00
36190;BME280;22232;50.914;13.858;2023-02-14T07:38:48;99712.88;;;3.66;100.00
36190;BME280;22232;50.914;13.858;2023-02-14T07:41:15;99713.69;;;3.66;100.00
36190;BME280;22232;50.914;13.858;2023-02-14T07:43:43;99711.59;;;3.70;100.00
36190;BME280;22232;50.914;13.858;2023-02-14T07:46:10;99706.88;;;3.74;100.00
36190;BME280;22232;50.914;13.858;2023-02-14T07:48:38;99703.84;;;3.78;100.00
36190;BME280;22232;50.914;13.858;2023-02-14T07:51:05;99707.44;;;3.77;100.00
36190;BME280;22232;50.914;13.858;2023-02-14T07:53:33;99698.28;;;3.81;100.00
36190;BME280;22232;50.914;13.858;2023-02-14T07:56:01;99698.00;;;3.84;100.00
36190;BME280;22232;50.914;13.858;2023-02-14T07:58:28;99696.47;;;3.82;100.00
36190;BME280;22232;50.914;13.858;2023-02-14T08:00:55;99696.03;;;3.86;100.00
36190;BME280;22232;50.914;13.858;2023-02-14T08:03:24;99690.75;;;3.86;100.00
36190;BME280;22232;50.914;13.858;2023-02-14T08:05:51;99687.69;;;3.91;100.00
36190;BME280;22232;50.914;13.858;2023-02-14T08:08:27;99688.13;;;3.96;100.00
36190;BME280;22232;50.914;13.858;2023-02-14T08:10:55;99684.34;;;3.99;100.00
36190;BME280;22232;50.914;13.858;2023-02-14T08:13:23;99693.22;;;3.98;100.00
36190;BME280;22232;50.914;13.858;2023-02-14T08:15:50;99685.72;;;4.03;100.00
36190;BME280;22232;50.914;13.858;2023-02-14T08:18:39;99705.88;;;4.04;100.00
36190;BME280;22232;50.914;13.858;2023-02-14T08:21:09;99705.88;;;4.04;100.00
36190;BME280;22232;50.914;13.858;2023-02-14T08:23:37;99711.69;;;4.07;100.00
36190;BME280;22232;50.914;13.858;2023-02-14T08:26:05;99707.56;;;4.05;100.00
36190;BME280;22232;50.914;13.858;2023-02-14T08:28:32;99705.03;;;4.03;100.00
36190;BME280;22232;50.914;13.858;2023-02-14T08:31:02;99710.19;;;4.05;100.00
36190;BME280;22232;50.914;13.858;2023-02-14T08:33:31;99711.69;;;4.07;100.00
36190;BME280;22232;50.914;13.858;2023-02-14T08:35:58;99709.19;;;4.16;100.00
36190;BME280;22232;50.914;13.858;2023-02-14T08:38:26;99713.06;;;4.21;100.00
36190;BME280;22232;50.914;13.858;2023-02-14T08:40:58;99711.66;;;4.27;100.00
36190;BME280;22232;50.914;13.858;2023-02-14T08:43:26;99710.69;;;4.28;100.00
36190;BME280;22232;50.914;13.858;2023-02-14T08:45:54;99701.75;;;4.29;100.00
36190;BME280;22232;50.914;13.858;2023-02-14T08:48:21;99705.94;;;4.31;100.00
36190;BME280;22232;50.914;13.858;2023-02-14T08:50:49;99711.75;;;4.35;100.00
36190;BME280;22232;50.914;13.858;2023-02-14T08:53:17;99709.28;;;4.33;100.00
36190;BME280;22232;50.914;13.858;2023-02-14T08:55:44;99710.25;;;4.23;100.00
36190;BME280;22232;50.914;13.858;2023-02-14T08:58:12;99705.13;;;4.21;100.00
36190;BME280;22232;50.914;13.858;2023-02-14T09:00:40;99711.78;;;4.25;100.00
36190;BME280;22232;50.914;13.858;2023-02-14T09:03:07;99713.56;;;4.34;100.00
36190;BME280;22232;50.914;13.858;2023-02-14T09:05:36;99711.63;;;4.36;100.00
36190;BME280;22232;50.914;13.858;2023-02-14T09:08:07;99714.84;;;4.30;100.00
36190;BME280;22232;50.914;13.858;2023-02-14T09:10:35;99719.59;;;4.27;100.00
36190;BME280;22232;50.914;13.858;2023-02-14T09:13:02;99717.06;;;4.25;100.00
36190;BME280;22232;50.914;13.858;2023-02-14T09:15:30;99716.81;;;4.19;100.00
36190;BME280;22232;50.914;13.858;2023-02-14T09:17:58;99715.84;;;4.29;100.00
36190;BME280;22232;50.914;13.858;2023-02-14T09:20:25;99715.97;;;4.28;100.00
36190;BME280;22232;50.914;13.858;2023-02-14T09:22:56;99727.50;;;4.27;100.00
36190;BME280;22232;50.914;13.858;2023-02-14T09:25:23;99717.34;;;4.22;100.00
36190;BME280;22232;50.914;13.858;2023-02-14T09:27:51;99719.84;;;4.33;100.00
36190;BME280;22232;50.914;13.858;2023-02-14T09:30:18;99721.22;;;4.37;100.00
36190;BME280;22232;50.914;13.858;2023-02-14T09:32:46;99723.19;;;4.35;100.00
36190;BME280;22232;50.914;13.858;2023-02-14T09:35:13;99735.13;;;4.40;100.00
36190;BME280;22232;50.914;13.858;2023-02-14T09:37:59;99727.31;;;4.48;100.00
36190;BME280;22232;50.914;13.858;2023-02-14T09:40:27;99723.94;;;4.55;100.00
36190;BME280;22232;50.914;13.858;2023-02-14T09:43:18;99729.63;;;4.60;100.00
36190;BME280;22232;50.914;13.858;2023-02-14T09:45:50;99725.16;;;4.61;100.00
36190;BME280;22232;50.914;13.858;2023-02-14T09:48:28;99728.06;;;4.68;100.00
36190;BME280;22232;50.914;13.858;2023-02-14T09:51:21;99731.69;;;4.67;100.00
36190;BME280;22232;50.914;13.858;2023-02-14T09:54:13;99733.22;;;4.69;100.00
36190;BME280;22232;50.914;13.858;2023-02-14T09:59:35;99727.19;;;4.77;100.00
36190;BME280;22232;50.914;13.858;2023-02-14T10:05:15;99730.66;;;4.77;100.00
36190;BME280;22232;50.914;13.858;2023-02-14T10:10:35;99722.44;;;4.80;100.00
36190;BME280;22232;50.914;13.858;2023-02-14T10:15:43;99720.97;;;4.96;100.00
36190;BME280;22232;50.914;13.858;2023-02-14T10:18:17;99718.78;;;4.91;100.00
36190;BME280;22232;50.914;13.858;2023-02-14T10:20:52;99722.25;;;4.92;100.00
36190;BME280;22232;50.914;13.858;2023-02-14T10:23:36;99724.50;;;4.87;100.00
36190;BME280;22232;50.914;13.858;2023-02-14T10:26:10;99723.53;;;4.88;100.00
36190;BME280;22232;50.914;13.858;2023-02-14T10:28:43;99723.06;;;4.92;100.00
36190;BME280;22232;50.914;13.858;2023-02-14T10:33:51;99722.41;;;4.90;100.00
36190;BME280;22232;50.914;13.858;2023-02-14T10:36:55;99722.53;;;4.89;100.00
36190;BME280;22232;50.914;13.858;2023-02-14T10:45:30;99713.28;;;5.02;100.00
36190;BME280;22232;50.914;13.858;2023-02-14T10:49:12;99720.66;;;4.99;100.00
36190;BME280;22232;50.914;13.858;2023-02-14T10:51:26;99720.06;;;5.05;100.00
36190;BME280;22232;50.914;13.858;2023-02-14T10:54:36;99713.19;;;4.94;100.00
36190;BME280;22232;50.914;13.858;2023-02-14T11:00:04;99710.53;;;4.67;100.00
36190;BME280;22232;50.914;13.858;2023-02-14T11:02:36;99707.91;;;4.67;100.00
36190;BME280;22232;50.914;13.858;2023-02-14T11:05:07;99708.53;;;4.51;100.00
36190;BME280;22232;50.914;13.858;2023-02-14T11:07:43;99703.81;;;4.45;100.00
36190;BME280;22232;50.914;13.858;2023-02-14T11:10:13;99705.94;;;4.31;100.00
36190;BME280;22232;50.914;13.858;2023-02-14T11:12:40;99709.13;;;4.35;100.00
36190;BME280;22232;50.914;13.858;2023-02-14T11:17:41;99702.53;;;4.49;100.00
36190;BME280;22232;50.914;13.858;2023-02-14T11:22:46;99699.44;;;4.53;100.00
36190;BME280;22232;50.914;13.858;2023-02-14T11:25:31;99699.72;;;4.60;100.00
36190;BME280;22232;50.914;13.858;2023-02-14T11:28:04;99703.09;;;4.52;100.00
36190;BME280;22232;50.914;13.858;2023-02-14T11:30:39;99703.25;;;4.51;100.00
36190;BME280;22232;50.914;13.858;2023-02-14T11:33:12;99701.91;;;4.65;100.00
36190;BME280;22232;50.914;13.858;2023-02-14T11:35:51;99701.44;;;4.51;100.00
36190;BME280;22232;50.914;13.858;2023-02-14T11:38:27;99693.75;;;4.58;100.00
36190;BME280;22232;50.914;13.858;2023-02-14T11:40:58;99698.50;;;4.54;100.00
36190;BME280;22232;50.914;13.858;2023-02-14T11:43:40;99697.16;;;4.41;100.00
36190;BME280;22232;50.914;13.858;2023-02-14T11:49:01;99691.19;;;4.39;100.00
36190;BME280;22232;50.914;13.858;2023-02-14T11:51:35;99694.38;;;4.42;100.00
36190;BME280;22232;50.914;13.858;2023-02-14T11:54:05;99685.38;;;4.25;100.00
36190;BME280;22232;50.914;13.858;2023-02-14T11:56:46;99686.19;;;4.35;100.00
36190;BME280;22232;50.914;13.858;2023-02-14T11:59:39;99691.19;;;4.39;100.00
36190;BME280;22232;50.914;13.858;2023-02-14T12:02:24;99678.06;;;4.47;100.00
36190;BME280;22232;50.914;13.858;2023-02-14T12:04:59;99677.78;;;4.50;100.00
36190;BME280;22232;50.914;13.858;2023-02-14T12:07:29;99671.97;;;4.46;100.00
36190;BME280;22232;50.914;13.858;2023-02-14T12:10:16;99668.78;;;4.43;100.00
36190;BME280;22232;50.914;13.858;2023-02-14T12:15:55;99670.66;;;4.60;100.00
36190;BME280;22232;50.914;13.858;2023-02-14T12:24:17;99641.56;;;4.88;100.00
36190;BME280;22232;50.914;13.858;2023-02-14T12:26:55;99639.00;;;5.14;100.00
36190;BME280;22232;50.914;13.858;2023-02-14T12:29:40;99637.13;;;5.24;100.00
36190;BME280;22232;50.914;13.858;2023-02-14T12:34:46;99631.53;;;5.45;100.00
36190;BME280;22232;50.914;13.858;2023-02-14T12:40:14;99626.38;;;5.43;100.00
36190;BME280;22232;50.914;13.858;2023-02-14T12:50:53;99611.16;;;5.63;100.00
36190;BME280;22232;50.914;13.858;2023-02-14T13:10:49;99582.44;;;5.77;100.00
36190;BME280;22232;50.914;13.858;2023-02-14T13:18:53;99576.72;;;5.37;100.00
36190;BME280;22232;50.914;13.858;2023-02-14T13:21:28;99574.47;;;5.24;100.00
36190;BME280;22232;50.914;13.858;2023-02-14T13:26:42;99577.88;;;5.17;100.00
36190;BME280;22232;50.914;13.858;2023-02-14T13:29:19;99566.66;;;5.23;100.00
36190;BME280;22232;50.914;13.858;2023-02-14T13:31:51;99565.72;;;5.24;100.00
36190;BME280;22232;50.914;13.858;2023-02-14T13:36:54;99551.47;;;5.43;100.00
36190;BME280;22232;50.914;13.858;2023-02-14T13:42:00;99555.88;;;5.60;100.00
36190;BME280;22232;50.914;13.858;2023-02-14T13:47:06;99555.41;;;5.65;100.00
36190;BME280;22232;50.914;13.858;2023-02-14T13:49:56;99556.66;;;5.79;100.00
36190;BME280;22232;50.914;13.858;2023-02-14T13:52:41;99556.69;;;5.87;100.00
36190;BME280;22232;50.914;13.858;2023-02-14T13:55:23;99553.84;;;5.80;100.00
36190;BME280;22232;50.914;13.858;2023-02-14T13:58:01;99554.84;;;5.87;100.00
36190;BME280;22232;50.914;13.858;2023-02-14T14:00:42;99557.91;;;5.66;100.00
36190;BME280;22232;50.914;13.858;2023-02-14T14:03:52;99553.94;;;5.70;100.00
36190;BME280;22232;50.914;13.858;2023-02-14T14:06:09;99557.44;;;5.45;100.00
36190;BME280;22232;50.914;13.858;2023-02-14T14:14:09;99550.66;;;5.50;100.00
36190;BME280;22232;50.914;13.858;2023-02-14T14:16:58;99547.31;;;5.40;100.00
36190;BME280;22232;50.914;13.858;2023-02-14T14:22:02;99548.28;;;5.39;100.00
36190;BME280;22232;50.914;13.858;2023-02-14T14:24:35;99545.53;;;5.49;100.00
36190;BME280;22232;50.914;13.858;2023-02-14T14:27:23;99540.06;;;5.50;100.00
36190;BME280;22232;50.914;13.858;2023-02-14T14:32:29;99528.88;;;5.57;100.00
36190;BME280;22232;50.914;13.858;2023-02-14T14:35:02;99525.47;;;5.64;100.00
36190;BME280;22232;50.914;13.858;2023-02-14T14:37:34;99518.50;;;5.63;100.00
36190;BME280;22232;50.914;13.858;2023-02-14T14:40:06;99526.91;;;5.59;100.00
36190;BME280;22232;50.914;13.858;2023-02-14T14:42:39;99518.72;;;5.44;100.00
36190;BME280;22232;50.914;13.858;2023-02-14T14:45:18;99521.72;;;5.49;100.00
36190;BME280;22232;50.914;13.858;2023-02-14T14:47:48;99511.13;;;5.49;100.00
36190;BME280;22232;50.914;13.858;2023-02-14T14:50:28;99512.00;;;5.32;100.00
36190;BME280;22232;50.914;13.858;2023-02-14T14:53:07;99509.22;;;5.33;100.00
36190;BME280;22232;50.914;13.858;2023-02-14T14:55:44;99505.16;;;5.21;100.00
36190;BME280;22232;50.914;13.858;2023-02-14T14:58:32;99504.19;;;5.22;100.00
36190;BME280;22232;50.914;13.858;2023-02-14T15:01:00;99496.44;;;5.28;100.00
36190;BME280;22232;50.914;13.858;2023-02-14T15:03:28;99496.09;;;5.23;100.00
36190;BME280;22232;50.914;13.858;2023-02-14T15:08:34;99490.69;;;5.33;100.00
36190;BME280;22232;50.914;13.858;2023-02-14T15:11:14;99481.94;;;5.33;100.00
36190;BME280;22232;50.914;13.858;2023-02-14T15:14:05;99481.06;;;5.24;100.00
36190;BME280;22232;50.914;13.858;2023-02-14T15:19:31;99484.91;;;4.68;100.00
36190;BME280;22232;50.914;13.858;2023-02-14T15:22:04;99479.47;;;4.51;100.00
36190;BME280;22232;50.914;13.858;2023-02-14T15:24:33;99478.16;;;4.37;100.00
36190;BME280;22232;50.914;13.858;2023-02-14T15:27:04;99477.81;;;4.32;100.00
36190;BME280;22232;50.914;13.858;2023-02-14T15:29:32;99478.16;;;4.20;100.00
36190;BME280;22232;50.914;13.858;2023-02-14T15:32:00;99480.13;;;4.18;100.00
36190;BME280;22232;50.914;13.858;2023-02-14T15:34:32;99484.72;;;4.16;100.00
36190;BME280;22232;50.914;13.858;2023-02-14T15:37:02;99474.97;;;4.16;100.00
36190;BME280;22232;50.914;13.858;2023-02-14T15:39:36;99480.41;;;4.14;100.00
36190;BME280;22232;50.914;13.858;2023-02-14T15:42:05;99472.78;;;4.11;100.00
36190;BME280;22232;50.914;13.858;2023-02-14T15:44:32;99471.19;;;4.01;100.00
36190;BME280;22232;50.914;13.858;2023-02-14T15:47:02;99462.28;;;4.02;100.00
36190;BME280;22232;50.914;13.858;2023-02-14T15:49:35;99463.41;;;3.99;100.00
36190;BME280;22232;50.914;13.858;2023-02-14T15:52:04;99461.22;;;3.95;100.00
36190;BME280;22232;50.914;13.858;2023-02-14T15:54:43;99462.63;;;3.89;100.00